Flight Track Log - Related Links

Times and Time Zones

All times are in EDT time to prevent confusion due to time zone crossing. See the SWA685 flight status page for this flight to view local times or setup timezone preferences in your user account.

Time Position Orientation Groundspeed Altitude Reporting Facility
EDT Latitude Longitude Course Direction KTS MPH feet Rate Location/Type
Sat 10:45:48 PM 39.8333 -104.7667 207° Southwest 197 227 7,500  Level Denver TRACON
Sat 10:46:48 PM 39.7833 -104.8000 207° Southwest 266 306 9,900 2,550 Climbing Denver TRACON
Sat 10:47:48 PM 39.7000 -104.7833 171° South 323 372 12,600 2,550 Climbing Denver TRACON
Sat 10:48:48 PM 39.6000 -104.7833 180° South 366 421 15,000 2,650 Climbing Denver TRACON
Sat 10:49:48 PM 39.4833 -104.7667 174° South 391 450 17,900 2,750 Climbing Denver TRACON
Sat 10:50:48 PM 39.3833 -104.7667 180° South 404 465 20,500 2,603 Climbing Denver TRACON
Sat 10:52:04 PM 39.2353 -104.7539 176° South 419 482 23,800 2,250 Climbing Denver Center
Sat 10:53:04 PM 39.1308 -104.7442 176° South 408 470 25,600 1,835 Climbing Denver Center
Sat 10:54:05 PM 39.0117 -104.7561 184° South 424 488 27,500 1,820 Climbing Denver Center
Sat 10:55:06 PM 38.9061 -104.8217 206° Southwest 418 481 29,300 1,623 Climbing Denver Center
Sat 10:56:07 PM 38.7953 -104.8906 206° Southwest 436 502 30,800 1,339 Climbing Denver Center
Sat 10:57:07 PM 38.6628 -104.9789 208° Southwest 446 513 32,000 595 Climbing Denver Center
Sat 10:58:08 PM 38.5519 -105.0553 208° Southwest 452 520 32,000  Level Denver Center
Sat 10:59:09 PM 38.4414 -105.1328 209° Southwest 453 521 32,000  Level Denver Center
Sat 11:00:10 PM 38.3383 -105.2028 208° Southwest 455 524 32,000  Level Denver Center
Sat 11:01:10 PM 38.2131 -105.2878 208° Southwest 458 527 32,000  Level Denver Center
Sat 11:02:11 PM 38.1061 -105.3606 208° Southwest 457 526 32,000  Level Denver Center
Sat 11:03:12 PM 37.9992 -105.4328 208° Southwest 456 525 32,000  Level Denver Center
Sat 11:04:12 PM 37.8739 -105.5181 208° Southwest 457 526 32,000  Level Denver Center
Sat 11:05:13 PM 37.7675 -105.5903 208° Southwest 455 524 32,000  Level Denver Center
Sat 11:06:14 PM 37.6586 -105.6519 204° Southwest 450 518 32,000  Level Denver Center
Sat 11:07:14 PM 37.5319 -105.7103 200° South 447 514 32,000  Level Denver Center
Sat 11:08:15 PM 37.4219 -105.7628 201° Southwest 443 510 32,000  Level Denver Center
Sat 11:09:16 PM 37.3125 -105.8133 200° South 439 505 32,000  Level Denver Center
Sat 11:10:16 PM 37.1844 -105.8725 200° South 438 504 32,000  Level Denver Center
Sat 11:11:17 PM 37.0764 -105.9242 201° Southwest 435 501 32,000  Level Denver Center
Sat 11:12:17 PM 36.9633 -105.9758 200° South 442 509 32,000  Level Denver Center
Sat 11:13:18 PM 36.8328 -106.0372 201° Southwest 448 516 32,000  Level Denver Center
Sat 11:14:19 PM 36.7214 -106.0872 200° South 450 518 32,000  Level Denver Center
Sat 11:15:19 PM 36.6047 -106.1431 201° Southwest 450 518 32,000  Level Denver Center
Sat 11:15:58 PM 36.5294 -106.1772 200° South 450 518 32,000  Level Albuquerque Center
Sat 11:16:58 PM 36.4094 -106.2300 199° South 454 522 32,000 -50 Level Albuquerque Center
Sat 11:17:59 PM 36.2911 -106.2822 200° South 453 521 31,900 -1,180 Descending Albuquerque Center
Sat 11:19:00 PM 36.1722 -106.3342 199° South 454 522 29,600 -2,331 Descending Albuquerque Center
Sat 11:20:00 PM 36.0611 -106.3836 200° South 433 498 27,200 -2,281 Descending Albuquerque Center
Sat 11:21:01 PM 35.9539 -106.4297 199° South 416 479 25,000 -2,262 Descending Albuquerque Center
Sat 11:22:02 PM 35.8400 -106.4744 198° South 394 453 22,600 -2,331 Descending Albuquerque Center
Sat 11:23:02 PM 35.7328 -106.5181 198° South 379 436 20,300 -1,983 Descending Albuquerque Center
Sat 11:24:03 PM 35.6536 -106.5519 199° South 373 429 18,600 -2,028 Descending Albuquerque Center
Sat 11:24:13 PM 35.6211 -106.5644 197° South 368 423 17,900 -2,471 Descending Albuquerque Center
Sat 11:24:37 PM 35.5833 -106.5797 198° South 363 418 17,200 -1,529 Descending Albuquerque Center
Sat 11:25:04 PM 35.5594 -106.5922 203° Southwest 360 414 16,600 -1,770 Descending Albuquerque Center
Sat 11:25:38 PM 35.4958 -106.6286 205° Southwest 348 400 15,400 -1,967 Descending Albuquerque Center
Sat 11:26:05 PM 35.4547 -106.6506 204° Southwest 345 397 14,600 -1,727 Descending Albuquerque Center
Sat 11:26:44 PM 35.4006 -106.6819 205° Southwest 324 373 13,500 -1,700 Descending Albuquerque Center
Sat 11:27:05 PM 35.3744 -106.6947 202° Southwest 319 367 12,900 -1,672 Descending Albuquerque Center
Sat 11:27:45 PM 35.3225 -106.7228 204° Southwest 301 346 11,800 -1,672 Descending Albuquerque Center
Sat 11:28:06 PM 35.2972 -106.7350 202° Southwest 304 350 11,200 -1,574 Descending Albuquerque Center
Sat 11:28:46 PM 35.2483 -106.7628 205° Southwest 290 334 10,200 -1,279 Descending Albuquerque Center
Sat 11:29:07 PM 35.2261 -106.7781 209° Southwest 287 330 9,900 -667 Descending Albuquerque Center
Sat 11:29:40 PM 35.1839 -106.7844 187° South 269 310 9,600 -500 Descending Albuquerque Center
Sat 11:30:07 PM 35.1533 -106.7750 166° South 273 314 9,400 -885 Descending Albuquerque Center
Sat 11:30:41 PM 35.1119 -106.7639 168° South 259 298 8,700 -984 Descending Albuquerque Center
Sat 11:31:08 PM 35.0842 -106.7542 164° South 247 284 8,400 -909 Descending Albuquerque Center
Sat 11:31:47 PM 35.0500 -106.7383 159° South 179 206 7,700 -1,279 Descending Albuquerque Center
Sat 11:32:09 PM 35.0433 -106.7211 115° Southeast 173 199 7,100 -1,279 Descending Albuquerque Center
Sat 11:32:48 PM 35.0450 -106.6853 87° East 149 171 6,400 -1,000 Descending Albuquerque Center
Sat 11:33:09 PM 35.0444 -106.6667 92° East 157 181 6,100 -787 Descending Albuquerque Center
Sat 11:33:49 PM 35.0444 -106.6336 90° East 146 168 5,600 -689 Descending Albuquerque Center
Sat 11:34:10 PM 35.0439 -106.6161 92° East 151 174 5,400 -571 Descending Albuquerque Center
Sat 11:36:00 PM 35.0402 -106.6092 112° Southeast  Level Estimated

Login

Don't have an account? Register now (free) for customized features, flight alerts, and more!